TimeEST,TemperatureF,Dew PointF,Humidity,Sea Level PressureIn,VisibilityMPH,Wind Direction,Wind SpeedMPH,Gust SpeedMPH,PrecipitationIn,Events,Conditions,WindDirDegrees,DateUTC
12:55 AM,32.0,24.8,75,30.10,7.0,South,9.2,-,N/A,,Clear,180,2013-01-09 05:55:00
1:14 AM,31.5,24.1,74,30.08,7.0,SSE,8.1,-,N/A,,Clear,160,2013-01-09 06:14:00
1:35 AM,30.2,23.9,77,30.08,5.0,South,8.1,-,N/A,,Haze,170,2013-01-09 06:35:00
1:55 AM,31.3,24.6,76,30.07,7.0,South,9.2,-,N/A,,Clear,170,2013-01-09 06:55:00
2:14 AM,29.7,23.9,79,30.07,5.0,SSE,5.8,-,N/A,,Haze,160,2013-01-09 07:14:00
2:35 AM,31.3,25.0,77,30.06,7.0,South,9.2,-,N/A,,Clear,180,2013-01-09 07:35:00
2:55 AM,32.4,25.2,75,30.06,7.0,South,11.5,-,N/A,,Clear,180,2013-01-09 07:55:00
3:14 AM,32.4,25.5,76,30.05,7.0,South,10.4,-,N/A,,Clear,170,2013-01-09 08:14:00
3:35 AM,33.8,26.4,74,30.05,7.0,South,9.2,16.1,N/A,,Mostly Cloudy,190,2013-01-09 08:35:00
3:54 AM,33.3,26.2,75,30.04,7.0,South,10.4,-,N/A,,Mostly Cloudy,180,2013-01-09 08:54:00
4:14 AM,34.0,27.0,75,30.02,7.0,South,12.7,-,N/A,,Overcast,170,2013-01-09 09:14:00
4:35 AM,34.9,27.3,74,30.02,7.0,SSW,10.4,-,N/A,,Overcast,210,2013-01-09 09:35:00
4:54 AM,34.7,27.5,75,30.01,7.0,South,9.2,17.3,N/A,,Overcast,180,2013-01-09 09:54:00
5:14 AM,36.3,28.6,74,30.01,10.0,SSW,8.1,-,N/A,,Overcast,200,2013-01-09 10:14:00
5:35 AM,37.8,28.9,71,30.02,10.0,SW,10.4,17.3,N/A,Rain,Light Rain,220,2013-01-09 10:35:00
5:54 AM,37.8,29.1,71,29.99,10.0,SSW,8.1,-,N/A,,Overcast,200,2013-01-09 10:54:00
6:15 AM,37.4,29.8,74,29.99,5.0,South,8.1,-,N/A,Rain,Rain,180,2013-01-09 11:15:00
6:35 AM,37.0,30.2,76,29.99,7.0,SSW,5.8,-,N/A,,Mostly Cloudy,200,2013-01-09 11:35:00
6:54 AM,36.7,30.6,78,29.99,7.0,South,5.8,-,N/A,,Scattered Clouds,190,2013-01-09 11:54:00
7:15 AM,36.7,30.6,78,30.00,10.0,SSW,6.9,-,N/A,,Clear,200,2013-01-09 12:15:00
7:35 AM,37.0,30.7,78,30.00,10.0,SSW,8.1,-,N/A,,Clear,210,2013-01-09 12:35:00
7:54 AM,37.8,31.1,77,30.01,10.0,SW,10.4,-,N/A,,Clear,230,2013-01-09 12:54:00
8:15 AM,39.2,31.1,73,30.02,10.0,SW,12.7,21.9,N/A,,Clear,230,2013-01-09 13:15:00
8:35 AM,39.2,30.9,72,30.03,10.0,WSW,13.8,23.0,N/A,,Clear,240,2013-01-09 13:35:00
8:54 AM,39.6,30.9,71,30.04,10.0,WSW,18.4,23.0,N/A,,Clear,240,2013-01-09 13:54:00
9:15 AM,39.9,30.7,70,30.05,10.0,WSW,16.1,26.5,N/A,,Clear,240,2013-01-09 14:15:00
9:34 AM,40.1,30.6,69,30.06,10.0,WSW,19.6,29.9,N/A,,Clear,250,2013-01-09 14:34:00
9:54 AM,40.1,30.6,69,30.07,10.0,WSW,20.7,26.5,N/A,,Clear,250,2013-01-09 14:54:00
10:14 AM,39.9,30.6,69,30.08,10.0,WSW,19.6,25.3,N/A,,Scattered Clouds,250,2013-01-09 15:14:00
10:34 AM,39.6,30.6,70,30.08,10.0,West,21.9,27.6,N/A,,Clear,260,2013-01-09 15:34:00
10:55 AM,39.9,30.4,69,30.09,10.0,West,19.6,26.5,N/A,,Clear,260,2013-01-09 15:55:00
11:14 AM,40.1,30.2,68,30.09,10.0,WSW,15.0,25.3,N/A,,Clear,250,2013-01-09 16:14:00
11:34 AM,41.0,29.7,64,30.09,10.0,WSW,12.7,23.0,N/A,,Clear,250,2013-01-09 16:34:00
11:54 AM,41.2,29.3,63,30.09,10.0,WSW,16.1,24.2,N/A,,Clear,250,2013-01-09 16:54:00
12:14 PM,41.5,28.9,61,30.09,10.0,WSW,17.3,24.2,N/A,,Clear,250,2013-01-09 17:14:00
12:35 PM,42.3,28.4,58,30.08,10.0,WSW,17.3,24.2,N/A,,Clear,250,2013-01-09 17:35:00
12:54 PM,42.3,27.7,56,30.08,10.0,WSW,16.1,27.6,N/A,,Clear,250,2013-01-09 17:54:00
1:14 PM,42.8,27.0,54,30.07,10.0,West,19.6,28.8,N/A,,Clear,260,2013-01-09 18:14:00
1:35 PM,43.3,26.6,52,30.08,10.0,WSW,18.4,26.5,N/A,,Clear,250,2013-01-09 18:35:00
1:54 PM,43.9,25.7,49,30.08,10.0,WSW,19.6,28.8,N/A,,Clear,250,2013-01-09 18:54:00
2:15 PM,44.1,25.9,49,30.09,10.0,WSW,20.7,28.8,N/A,,Clear,250,2013-01-09 19:15:00
2:35 PM,44.2,25.5,48,30.10,10.0,WSW,20.7,27.6,N/A,,Clear,250,2013-01-09 19:35:00
2:54 PM,44.6,23.0,43,30.12,10.0,WSW,23.0,35.7,N/A,,Clear,250,2013-01-09 19:54:00
3:15 PM,44.6,22.1,41,30.14,10.0,West,25.3,35.7,N/A,,Clear,260,2013-01-09 20:15:00
3:35 PM,44.6,22.1,41,30.15,10.0,West,20.7,32.2,N/A,,Clear,260,2013-01-09 20:35:00
3:54 PM,44.4,22.5,42,30.15,10.0,WSW,20.7,24.2,N/A,,Clear,250,2013-01-09 20:54:00
4:15 PM,44.1,20.7,39,30.17,10.0,West,18.4,27.6,N/A,,Clear,260,2013-01-09 21:15:00
4:35 PM,43.7,19.2,38,30.19,10.0,West,23.0,31.1,N/A,,Clear,270,2013-01-09 21:35:00
4:54 PM,42.8,19.4,39,30.19,10.0,West,17.3,27.6,N/A,,Clear,270,2013-01-09 21:54:00
5:15 PM,41.4,21.0,44,30.20,10.0,West,15.0,-,N/A,,Clear,270,2013-01-09 22:15:00
5:35 PM,41.2,21.0,45,30.23,10.0,West,15.0,25.3,N/A,,Clear,270,2013-01-09 22:35:00
5:54 PM,40.5,21.7,47,30.24,10.0,West,16.1,24.2,N/A,,Clear,270,2013-01-09 22:54:00
6:15 PM,40.1,22.1,49,30.26,10.0,West,16.1,24.2,N/A,,Clear,270,2013-01-09 23:15:00
6:34 PM,39.2,22.6,52,30.28,10.0,West,16.1,20.7,N/A,,Clear,260,2013-01-09 23:34:00
7:15 PM,38.3,23.4,55,30.32,10.0,West,16.1,25.3,N/A,,Clear,270,2013-01-10 00:15:00
7:34 PM,37.9,23.7,57,30.34,10.0,West,11.5,-,N/A,,Clear,270,2013-01-10 00:34:00
7:54 PM,37.4,24.3,59,30.35,10.0,West,12.7,-,N/A,,Clear,280,2013-01-10 00:54:00
8:14 PM,37.2,24.3,60,30.34,10.0,West,12.7,19.6,N/A,,Clear,280,2013-01-10 01:14:00
8:34 PM,36.7,23.9,60,30.35,10.0,West,12.7,16.1,N/A,,Clear,280,2013-01-10 01:34:00
9:14 PM,35.8,24.1,62,30.36,10.0,WNW,9.2,-,N/A,,Clear,300,2013-01-10 02:14:00
9:34 PM,34.7,24.3,66,30.36,10.0,WNW,6.9,-,N/A,,Clear,300,2013-01-10 02:34:00
9:55 PM,34.9,24.4,66,30.37,10.0,WNW,9.2,-,N/A,,Clear,290,2013-01-10 02:55:00
10:14 PM,34.0,24.3,68,30.38,10.0,WNW,8.1,-,N/A,,Clear,290,2013-01-10 03:14:00
10:35 PM,34.2,24.4,68,30.39,10.0,West,6.9,-,N/A,,Clear,280,2013-01-10 03:35:00
10:55 PM,32.7,23.5,69,30.39,10.0,WNW,5.8,-,N/A,,Clear,300,2013-01-10 03:55:00
11:14 PM,32.0,23.7,71,30.39,10.0,NW,4.6,-,N/A,,Clear,310,2013-01-10 04:14:00
11:35 PM,31.5,23.5,73,30.39,10.0,NW,4.6,-,N/A,,Clear,320,2013-01-10 04:35:00
11:54 PM,32.0,24.1,73,30.39,10.0,Calm,Calm,-,N/A,,Clear,0,2013-01-10 04:54:00